sensor_id;sensor_type;location;lat;lon;timestamp;pressure;altitude;pressure_sealevel;temperature;humidity
6938;BME280;40040;42.706;23.372;2023-01-15T00:02:04;145434.03;;;5.08;100.00
6938;BME280;40040;42.706;23.372;2023-01-15T00:04:32;145446.31;;;5.13;100.00
6938;BME280;40040;42.706;23.372;2023-01-15T00:06:59;145447.53;;;5.14;100.00
6938;BME280;40040;42.706;23.372;2023-01-15T00:09:26;145440.19;;;5.11;100.00
6938;BME280;40040;42.706;23.372;2023-01-15T00:11:53;145400.88;;;4.95;100.00
6938;BME280;40040;42.706;23.372;2023-01-15T00:14:20;145387.38;;;4.89;100.00
6938;BME280;40040;42.706;23.372;2023-01-15T00:16:49;145368.94;;;4.82;100.00
6938;BME280;40040;42.706;23.372;2023-01-15T00:19:16;145357.91;;;4.77;100.00
6938;BME280;40040;42.706;23.372;2023-01-15T00:21:44;145305.06;;;4.55;100.00
6938;BME280;40040;42.706;23.372;2023-01-15T00:24:11;145337.03;;;4.69;100.00
6938;BME280;40040;42.706;23.372;2023-01-15T00:26:56;145344.38;;;4.72;100.00
6938;BME280;40040;42.706;23.372;2023-01-15T00:29:40;145368.94;;;4.82;100.00
6938;BME280;40040;42.706;23.372;2023-01-15T00:32:07;145376.28;;;4.85;100.00
6938;BME280;40040;42.706;23.372;2023-01-15T00:34:34;145371.41;;;4.83;100.00
6938;BME280;40040;42.706;23.372;2023-01-15T00:37:02;145332.09;;;4.67;100.00
6938;BME280;40040;42.706;23.372;2023-01-15T00:39:29;145378.78;;;4.86;100.00
6938;BME280;40040;42.706;23.372;2023-01-15T00:41:56;145402.06;;;4.95;100.00
6938;BME280;40040;42.706;23.372;2023-01-15T00:44:23;145402.06;;;4.95;100.00
6938;BME280;40040;42.706;23.372;2023-01-15T00:46:50;145410.66;;;4.99;100.00
6938;BME280;40040;42.706;23.372;2023-01-15T00:49:17;145403.31;;;4.96;100.00
6938;BME280;40040;42.706;23.372;2023-01-15T00:51:44;145411.91;;;4.99;100.00
6938;BME280;40040;42.706;23.372;2023-01-15T00:54:13;145400.88;;;4.95;100.00
6938;BME280;40040;42.706;23.372;2023-01-15T00:56:40;145397.19;;;4.93;100.00
6938;BME280;40040;42.706;23.372;2023-01-15T00:59:06;145411.91;;;4.99;100.00
6938;BME280;40040;42.706;23.372;2023-01-15T01:01:33;145403.31;;;4.96;100.00
6938;BME280;40040;42.706;23.372;2023-01-15T01:04:01;145395.97;;;4.93;100.00
6938;BME280;40040;42.706;23.372;2023-01-15T01:06:28;145407.00;;;4.97;100.00
6938;BME280;40040;42.706;23.372;2023-01-15T01:08:55;145382.44;;;4.87;100.00
6938;BME280;40040;42.706;23.372;2023-01-15T01:11:24;145388.59;;;4.90;100.00
6938;BME280;40040;42.706;23.372;2023-01-15T01:13:53;145307.56;;;4.56;100.00
6938;BME280;40040;42.706;23.372;2023-01-15T01:16:26;145376.28;;;4.85;100.00
6938;BME280;40040;42.706;23.372;2023-01-15T01:18:55;145377.53;;;4.85;100.00
6938;BME280;40040;42.706;23.372;2023-01-15T01:21:21;145364.00;;;4.80;100.00
6938;BME280;40040;42.706;23.372;2023-01-15T01:23:49;145351.72;;;4.75;100.00
6938;BME280;40040;42.706;23.372;2023-01-15T01:26:16;145373.84;;;4.84;100.00
6938;BME280;40040;42.706;23.372;2023-01-15T01:28:47;145366.50;;;4.81;100.00
6938;BME280;40040;42.706;23.372;2023-01-15T01:31:14;145368.94;;;4.82;100.00
6938;BME280;40040;42.706;23.372;2023-01-15T01:33:41;145310.00;;;4.57;100.00
6938;BME280;40040;42.706;23.372;2023-01-15T01:36:08;145386.13;;;4.89;100.00
6938;BME280;40040;42.706;23.372;2023-01-15T01:38:35;145397.19;;;4.93;100.00
6938;BME280;40040;42.706;23.372;2023-01-15T01:41:02;145405.81;;;4.97;100.00
6938;BME280;40040;42.706;23.372;2023-01-15T01:43:29;145405.81;;;4.97;100.00
6938;BME280;40040;42.706;23.372;2023-01-15T01:45:58;145413.16;;;5.00;100.00
6938;BME280;40040;42.706;23.372;2023-01-15T01:48:28;145407.00;;;4.97;100.00
6938;BME280;40040;42.706;23.372;2023-01-15T01:50:56;145409.47;;;4.98;100.00
6938;BME280;40040;42.706;23.372;2023-01-15T01:53:27;145388.59;;;4.90;100.00
6938;BME280;40040;42.706;23.372;2023-01-15T01:55:57;145381.19;;;4.87;100.00
6938;BME280;40040;42.706;23.372;2023-01-15T01:58:26;145373.84;;;4.84;100.00
6938;BME280;40040;42.706;23.372;2023-01-15T02:00:54;145376.28;;;4.85;100.00
6938;BME280;40040;42.706;23.372;2023-01-15T02:03:26;145346.81;;;4.73;100.00
6938;BME280;40040;42.706;23.372;2023-01-15T02:05:58;145391.03;;;4.91;100.00
6938;BME280;40040;42.706;23.372;2023-01-15T02:08:26;145391.03;;;4.91;100.00
6938;BME280;40040;42.706;23.372;2023-01-15T02:10:54;145394.72;;;4.92;100.00
6938;BME280;40040;42.706;23.372;2023-01-15T02:13:26;145391.03;;;4.91;100.00
6938;BME280;40040;42.706;23.372;2023-01-15T02:16:03;145324.75;;;4.64;100.00
6938;BME280;40040;42.706;23.372;2023-01-15T02:18:41;145393.47;;;4.92;100.00
6938;BME280;40040;42.706;23.372;2023-01-15T02:21:13;145368.94;;;4.82;100.00
6938;BME280;40040;42.706;23.372;2023-01-15T02:24:05;145373.84;;;4.84;100.00
6938;BME280;40040;42.706;23.372;2023-01-15T02:27:00;145350.53;;;4.74;100.00
6938;BME280;40040;42.706;23.372;2023-01-15T02:29:33;145324.75;;;4.64;100.00
6938;BME280;40040;42.706;23.372;2023-01-15T02:32:09;145346.81;;;4.73;100.00
6938;BME280;40040;42.706;23.372;2023-01-15T02:34:41;145310.00;;;4.57;100.00
6938;BME280;40040;42.706;23.372;2023-01-15T02:37:14;145344.38;;;4.72;100.00
6938;BME280;40040;42.706;23.372;2023-01-15T02:39:44;145321.03;;;4.62;100.00
6938;BME280;40040;42.706;23.372;2023-01-15T02:42:15;145311.25;;;4.58;100.00
6938;BME280;40040;42.706;23.372;2023-01-15T02:44:46;145278.09;;;4.44;100.00
6938;BME280;40040;42.706;23.372;2023-01-15T02:47:15;145325.94;;;4.64;100.00
6938;BME280;40040;42.706;23.372;2023-01-15T02:49:43;145308.75;;;4.57;100.00
6938;BME280;40040;42.706;23.372;2023-01-15T02:52:15;145324.75;;;4.64;100.00
6938;BME280;40040;42.706;23.372;2023-01-15T02:54:46;145319.84;;;4.62;100.00
6938;BME280;40040;42.706;23.372;2023-01-15T02:57:17;145339.47;;;4.70;100.00
6938;BME280;40040;42.706;23.372;2023-01-15T02:59:47;145349.28;;;4.74;100.00
6938;BME280;40040;42.706;23.372;2023-01-15T03:02:18;145368.94;;;4.82;100.00
6938;BME280;40040;42.706;23.372;2023-01-15T03:04:48;145364.00;;;4.80;100.00
6938;BME280;40040;42.706;23.372;2023-01-15T03:07:21;145356.66;;;4.77;100.00
6938;BME280;40040;42.706;23.372;2023-01-15T03:09:51;145388.59;;;4.90;100.00
6938;BME280;40040;42.706;23.372;2023-01-15T03:12:23;145398.41;;;4.94;100.00
6938;BME280;40040;42.706;23.372;2023-01-15T03:14:58;145400.88;;;4.95;100.00
6938;BME280;40040;42.706;23.372;2023-01-15T03:17:33;145409.47;;;4.98;100.00
6938;BME280;40040;42.706;23.372;2023-01-15T03:20:05;145402.06;;;4.95;100.00
6938;BME280;40040;42.706;23.372;2023-01-15T03:22:35;145415.59;;;5.01;100.00
6938;BME280;40040;42.706;23.372;2023-01-15T03:25:07;145410.66;;;4.99;100.00
6938;BME280;40040;42.706;23.372;2023-01-15T03:27:37;145427.88;;;5.06;100.00
6938;BME280;40040;42.706;23.372;2023-01-15T03:30:07;145431.59;;;5.07;100.00
6938;BME280;40040;42.706;23.372;2023-01-15T03:32:34;145311.25;;;4.58;100.00
6938;BME280;40040;42.706;23.372;2023-01-15T03:35:01;145425.44;;;5.05;100.00
6938;BME280;40040;42.706;23.372;2023-01-15T03:37:30;145410.66;;;4.99;100.00
6938;BME280;40040;42.706;23.372;2023-01-15T03:39:58;145420.50;;;5.03;100.00
6938;BME280;40040;42.706;23.372;2023-01-15T03:42:40;145414.41;;;5.00;100.00
6938;BME280;40040;42.706;23.372;2023-01-15T03:45:14;145418.06;;;5.02;100.00
6938;BME280;40040;42.706;23.372;2023-01-15T03:47:48;145364.00;;;4.80;100.00
6938;BME280;40040;42.706;23.372;2023-01-15T03:50:25;145373.84;;;4.84;100.00
6938;BME280;40040;42.706;23.372;2023-01-15T03:53:00;145383.69;;;4.88;100.00
6938;BME280;40040;42.706;23.372;2023-01-15T03:55:36;145341.94;;;4.71;100.00
6938;BME280;40040;42.706;23.372;2023-01-15T03:58:10;145386.13;;;4.89;100.00
6938;BME280;40040;42.706;23.372;2023-01-15T04:00:41;145398.41;;;4.94;100.00
6938;BME280;40040;42.706;23.372;2023-01-15T04:03:10;145378.78;;;4.86;100.00
6938;BME280;40040;42.706;23.372;2023-01-15T04:05:40;145395.97;;;4.93;100.00
6938;BME280;40040;42.706;23.372;2023-01-15T04:08:09;145381.19;;;4.87;100.00
6938;BME280;40040;42.706;23.372;2023-01-15T04:10:49;145355.41;;;4.76;100.00
6938;BME280;40040;42.706;23.372;2023-01-15T04:13:18;145346.81;;;4.73;100.00
6938;BME280;40040;42.706;23.372;2023-01-15T04:15:44;145322.28;;;4.63;100.00
6938;BME280;40040;42.706;23.372;2023-01-15T04:18:11;145330.88;;;4.66;100.00
6938;BME280;40040;42.706;23.372;2023-01-15T04:20:38;145319.84;;;4.62;100.00
6938;BME280;40040;42.706;23.372;2023-01-15T04:23:05;145317.34;;;4.60;100.00
6938;BME280;40040;42.706;23.372;2023-01-15T04:25:32;145311.25;;;4.58;100.00
6938;BME280;40040;42.706;23.372;2023-01-15T04:27:58;145307.56;;;4.56;100.00
6938;BME280;40040;42.706;23.372;2023-01-15T04:30:27;145314.91;;;4.59;100.00
6938;BME280;40040;42.706;23.372;2023-01-15T04:32:54;145322.28;;;4.63;100.00
6938;BME280;40040;42.706;23.372;2023-01-15T04:35:21;145324.75;;;4.64;100.00
6938;BME280;40040;42.706;23.372;2023-01-15T04:37:48;145338.22;;;4.69;100.00
6938;BME280;40040;42.706;23.372;2023-01-15T04:40:15;145329.63;;;4.66;100.00
6938;BME280;40040;42.706;23.372;2023-01-15T04:42:56;145324.75;;;4.64;100.00
6938;BME280;40040;42.706;23.372;2023-01-15T04:45:47;145286.69;;;4.48;100.00
6938;BME280;40040;42.706;23.372;2023-01-15T04:48:14;145273.19;;;4.42;100.00
6938;BME280;40040;42.706;23.372;2023-01-15T04:50:40;145252.31;;;4.34;100.00
6938;BME280;40040;42.706;23.372;2023-01-15T04:53:07;145263.34;;;4.38;100.00
6938;BME280;40040;42.706;23.372;2023-01-15T04:55:34;145265.78;;;4.39;100.00
6938;BME280;40040;42.706;23.372;2023-01-15T04:58:01;145260.91;;;4.37;100.00
6938;BME280;40040;42.706;23.372;2023-01-15T05:00:28;145242.50;;;4.30;100.00
6938;BME280;40040;42.706;23.372;2023-01-15T05:02:56;145273.19;;;4.42;100.00
6938;BME280;40040;42.706;23.372;2023-01-15T05:05:23;145306.31;;;4.56;100.00
6938;BME280;40040;42.706;23.372;2023-01-15T05:07:50;145300.16;;;4.53;100.00
6938;BME280;40040;42.706;23.372;2023-01-15T05:10:17;145327.19;;;4.65;100.00
6938;BME280;40040;42.706;23.372;2023-01-15T05:12:44;145319.84;;;4.62;100.00
6938;BME280;40040;42.706;23.372;2023-01-15T05:15:10;145328.44;;;4.65;100.00
6938;BME280;40040;42.706;23.372;2023-01-15T05:17:37;145263.34;;;4.38;100.00
6938;BME280;40040;42.706;23.372;2023-01-15T05:20:07;145341.94;;;4.71;100.00
6938;BME280;40040;42.706;23.372;2023-01-15T05:22:34;145344.38;;;4.72;100.00
6938;BME280;40040;42.706;23.372;2023-01-15T05:25:01;145348.06;;;4.73;100.00
6938;BME280;40040;42.706;23.372;2023-01-15T05:27:29;145354.22;;;4.76;100.00
6938;BME280;40040;42.706;23.372;2023-01-15T05:29:56;145346.81;;;4.73;100.00
6938;BME280;40040;42.706;23.372;2023-01-15T05:32:23;145357.91;;;4.77;100.00
6938;BME280;40040;42.706;23.372;2023-01-15T05:34:50;145335.78;;;4.68;100.00
6938;BME280;40040;42.706;23.372;2023-01-15T05:37:18;145319.84;;;4.62;100.00
6938;BME280;40040;42.706;23.372;2023-01-15T05:39:45;145335.78;;;4.68;100.00
6938;BME280;40040;42.706;23.372;2023-01-15T05:42:12;145307.56;;;4.56;100.00
6938;BME280;40040;42.706;23.372;2023-01-15T05:44:39;145295.28;;;4.51;100.00
6938;BME280;40040;42.706;23.372;2023-01-15T05:47:05;145302.66;;;4.54;100.00
6938;BME280;40040;42.706;23.372;2023-01-15T05:49:33;145276.88;;;4.44;100.00
6938;BME280;40040;42.706;23.372;2023-01-15T05:52:00;145274.38;;;4.43;100.00
6938;BME280;40040;42.706;23.372;2023-01-15T05:54:30;145278.09;;;4.44;100.00
6938;BME280;40040;42.706;23.372;2023-01-15T05:56:58;145303.84;;;4.55;100.00
6938;BME280;40040;42.706;23.372;2023-01-15T05:59:27;145298.97;;;4.53;100.00
6938;BME280;40040;42.706;23.372;2023-01-15T06:01:54;145305.06;;;4.55;100.00
6938;BME280;40040;42.706;23.372;2023-01-15T06:04:22;145317.34;;;4.60;100.00
6938;BME280;40040;42.706;23.372;2023-01-15T06:06:50;145344.38;;;4.72;100.00
6938;BME280;40040;42.706;23.372;2023-01-15T06:09:18;145373.84;;;4.84;100.00
6938;BME280;40040;42.706;23.372;2023-01-15T06:11:46;145375.09;;;4.84;100.00
6938;BME280;40040;42.706;23.372;2023-01-15T06:14:13;145370.16;;;4.82;100.00
6938;BME280;40040;42.706;23.372;2023-01-15T06:16:40;145344.38;;;4.72;100.00
6938;BME280;40040;42.706;23.372;2023-01-15T06:19:08;145348.06;;;4.73;100.00
6938;BME280;40040;42.706;23.372;2023-01-15T06:21:35;145350.53;;;4.74;100.00
6938;BME280;40040;42.706;23.372;2023-01-15T06:24:02;145349.28;;;4.74;100.00
6938;BME280;40040;42.706;23.372;2023-01-15T06:26:30;145337.03;;;4.69;100.00
6938;BME280;40040;42.706;23.372;2023-01-15T06:28:58;145343.13;;;4.71;100.00
6938;BME280;40040;42.706;23.372;2023-01-15T06:31:25;145339.47;;;4.70;100.00
6938;BME280;40040;42.706;23.372;2023-01-15T06:33:52;145307.56;;;4.56;100.00
6938;BME280;40040;42.706;23.372;2023-01-15T06:36:21;145355.41;;;4.76;100.00
6938;BME280;40040;42.706;23.372;2023-01-15T06:38:49;145330.88;;;4.66;100.00
6938;BME280;40040;42.706;23.372;2023-01-15T06:41:18;145323.50;;;4.63;100.00
6938;BME280;40040;42.706;23.372;2023-01-15T06:44:04;145332.09;;;4.67;100.00
6938;BME280;40040;42.706;23.372;2023-01-15T06:46:49;145364.00;;;4.80;100.00
6938;BME280;40040;42.706;23.372;2023-01-15T06:49:35;145368.94;;;4.82;100.00
6938;BME280;40040;42.706;23.372;2023-01-15T06:52:03;145378.78;;;4.86;100.00
6938;BME280;40040;42.706;23.372;2023-01-15T06:54:30;145366.50;;;4.81;100.00
6938;BME280;40040;42.706;23.372;2023-01-15T06:56:57;145354.22;;;4.76;100.00
6938;BME280;40040;42.706;23.372;2023-01-15T06:59:26;145341.94;;;4.71;100.00
6938;BME280;40040;42.706;23.372;2023-01-15T07:01:53;145344.38;;;4.72;100.00
6938;BME280;40040;42.706;23.372;2023-01-15T07:04:20;145329.63;;;4.66;100.00
6938;BME280;40040;42.706;23.372;2023-01-15T07:06:47;145310.00;;;4.57;100.00
6938;BME280;40040;42.706;23.372;2023-01-15T07:09:14;145318.59;;;4.61;100.00
6938;BME280;40040;42.706;23.372;2023-01-15T07:11:41;145302.66;;;4.54;100.00
6938;BME280;40040;42.706;23.372;2023-01-15T07:14:16;145302.66;;;4.54;100.00
6938;BME280;40040;42.706;23.372;2023-01-15T07:16:44;145317.34;;;4.60;100.00
6938;BME280;40040;42.706;23.372;2023-01-15T07:19:11;145324.75;;;4.64;100.00
6938;BME280;40040;42.706;23.372;2023-01-15T07:21:38;145318.59;;;4.61;100.00
6938;BME280;40040;42.706;23.372;2023-01-15T07:24:06;145317.34;;;4.60;100.00
6938;BME280;40040;42.706;23.372;2023-01-15T07:26:33;145329.63;;;4.66;100.00
6938;BME280;40040;42.706;23.372;2023-01-15T07:29:00;145330.88;;;4.66;100.00
6938;BME280;40040;42.706;23.372;2023-01-15T07:31:27;145349.28;;;4.74;100.00
6938;BME280;40040;42.706;23.372;2023-01-15T07:33:56;145386.13;;;4.89;100.00
6938;BME280;40040;42.706;23.372;2023-01-15T07:36:23;145391.03;;;4.91;100.00
6938;BME280;40040;42.706;23.372;2023-01-15T07:38:50;145378.78;;;4.86;100.00
6938;BME280;40040;42.706;23.372;2023-01-15T07:41:17;145321.03;;;4.62;100.00
6938;BME280;40040;42.706;23.372;2023-01-15T07:44:02;145443.88;;;5.12;100.00
6938;BME280;40040;42.706;23.372;2023-01-15T07:46:46;145488.06;;;5.30;100.00
6938;BME280;40040;42.706;23.372;2023-01-15T07:49:32;145512.66;;;5.40;100.00
6938;BME280;40040;42.706;23.372;2023-01-15T07:52:15;145492.97;;;5.32;100.00
6938;BME280;40040;42.706;23.372;2023-01-15T07:54:42;145544.59;;;5.53;100.00
6938;BME280;40040;42.706;23.372;2023-01-15T07:57:10;145570.41;;;5.64;100.00
6938;BME280;40040;42.706;23.372;2023-01-15T07:59:37;145594.97;;;5.74;100.00
6938;BME280;40040;42.706;23.372;2023-01-15T08:02:05;145654.00;;;5.98;100.00
6938;BME280;40040;42.706;23.372;2023-01-15T08:04:33;145684.75;;;6.11;100.00
6938;BME280;40040;42.706;23.372;2023-01-15T08:07:01;145693.34;;;6.14;100.00
6938;BME280;40040;42.706;23.372;2023-01-15T08:09:28;145717.91;;;6.24;100.00
6938;BME280;40040;42.706;23.372;2023-01-15T08:11:57;145752.34;;;6.38;100.00
6938;BME280;40040;42.706;23.372;2023-01-15T08:14:42;145765.88;;;6.44;100.00
6938;BME280;40040;42.706;23.372;2023-01-15T08:17:26;145705.63;;;6.19;100.00
6938;BME280;40040;42.706;23.372;2023-01-15T08:19:54;145717.91;;;6.24;100.00
6938;BME280;40040;42.706;23.372;2023-01-15T08:22:21;145794.19;;;6.55;100.00
6938;BME280;40040;42.706;23.372;2023-01-15T08:24:48;145733.94;;;6.31;100.00
6938;BME280;40040;42.706;23.372;2023-01-15T08:27:15;145811.41;;;6.62;100.00
6938;BME280;40040;42.706;23.372;2023-01-15T08:29:42;145785.59;;;6.52;100.00
6938;BME280;40040;42.706;23.372;2023-01-15T08:32:09;145797.88;;;6.57;100.00
6938;BME280;40040;42.706;23.372;2023-01-15T08:34:35;145818.78;;;6.65;100.00
6938;BME280;40040;42.706;23.372;2023-01-15T08:37:04;145840.94;;;6.74;100.00
6938;BME280;40040;42.706;23.372;2023-01-15T08:39:30;145844.59;;;6.76;100.00
6938;BME280;40040;42.706;23.372;2023-01-15T08:41:58;145844.59;;;6.76;100.00
6938;BME280;40040;42.706;23.372;2023-01-15T08:44:25;145831.06;;;6.70;100.00
6938;BME280;40040;42.706;23.372;2023-01-15T08:46:51;145853.22;;;6.79;100.00
6938;BME280;40040;42.706;23.372;2023-01-15T08:49:19;145812.59;;;6.63;100.00
6938;BME280;40040;42.706;23.372;2023-01-15T08:51:46;145789.25;;;6.53;100.00
6938;BME280;40040;42.706;23.372;2023-01-15T08:54:18;145764.63;;;6.43;100.00
6938;BME280;40040;42.706;23.372;2023-01-15T08:56:46;145754.84;;;6.39;100.00
6938;BME280;40040;42.706;23.372;2023-01-15T08:59:14;145746.22;;;6.36;100.00
6938;BME280;40040;42.706;23.372;2023-01-15T09:01:41;145743.75;;;6.35;100.00
6938;BME280;40040;42.706;23.372;2023-01-15T09:04:12;145754.84;;;6.39;100.00
6938;BME280;40040;42.706;23.372;2023-01-15T09:06:39;145762.19;;;6.42;100.00
6938;BME280;40040;42.706;23.372;2023-01-15T09:09:06;145823.72;;;6.67;100.00
6938;BME280;40040;42.706;23.372;2023-01-15T09:11:34;145836.00;;;6.72;100.00
6938;BME280;40040;42.706;23.372;2023-01-15T09:14:04;145845.81;;;6.76;100.00
6938;BME280;40040;42.706;23.372;2023-01-15T09:16:31;145863.03;;;6.83;100.00
6938;BME280;40040;42.706;23.372;2023-01-15T09:18:58;145882.75;;;6.92;100.00
6938;BME280;40040;42.706;23.372;2023-01-15T09:21:25;145870.44;;;6.87;100.00
6938;BME280;40040;42.706;23.372;2023-01-15T09:23:52;145840.94;;;6.74;100.00
6938;BME280;40040;42.706;23.372;2023-01-15T09:26:25;145807.69;;;6.61;100.00
6938;BME280;40040;42.706;23.372;2023-01-15T09:28:54;145791.69;;;6.54;100.00
6938;BME280;40040;42.706;23.372;2023-01-15T09:31:21;145783.09;;;6.51;100.00
6938;BME280;40040;42.706;23.372;2023-01-15T09:33:48;145796.63;;;6.56;100.00
6938;BME280;40040;42.706;23.372;2023-01-15T09:36:15;145837.19;;;6.73;100.00
6938;BME280;40040;42.706;23.372;2023-01-15T09:38:42;145838.44;;;6.73;100.00
6938;BME280;40040;42.706;23.372;2023-01-15T09:41:11;145869.19;;;6.86;100.00
6938;BME280;40040;42.706;23.372;2023-01-15T09:44:09;145890.09;;;6.95;100.00
6938;BME280;40040;42.706;23.372;2023-01-15T09:46:41;145911.00;;;7.03;100.00
6938;BME280;40040;42.706;23.372;2023-01-15T09:49:22;145914.69;;;7.05;100.00
6938;BME280;40040;42.706;23.372;2023-01-15T09:52:02;145897.47;;;6.98;100.00
6938;BME280;40040;42.706;23.372;2023-01-15T09:54:43;145882.75;;;6.92;100.00
6938;BME280;40040;42.706;23.372;2023-01-15T09:57:12;145876.56;;;6.89;100.00
6938;BME280;40040;42.706;23.372;2023-01-15T09:59:43;145880.25;;;6.91;100.00
6938;BME280;40040;42.706;23.372;2023-01-15T10:02:19;145949.16;;;7.19;100.00
6938;BME280;40040;42.706;23.372;2023-01-15T10:04:50;145999.59;;;7.39;100.00
6938;BME280;40040;42.706;23.372;2023-01-15T10:07:23;146007.00;;;7.42;100.00
6938;BME280;40040;42.706;23.372;2023-01-15T10:09:57;146010.69;;;7.44;100.00
6938;BME280;40040;42.706;23.372;2023-01-15T10:12:28;146029.16;;;7.51;100.00
6938;BME280;40040;42.706;23.372;2023-01-15T10:15:13;146014.38;;;7.45;100.00
6938;BME280;40040;42.706;23.372;2023-01-15T10:17:42;146019.31;;;7.47;99.41
6938;BME280;40040;42.706;23.372;2023-01-15T10:20:28;146025.44;;;7.50;99.94
6938;BME280;40040;42.706;23.372;2023-01-15T10:23:12;146032.84;;;7.53;100.00
6938;BME280;40040;42.706;23.372;2023-01-15T10:25:47;146118.97;;;7.88;100.00
6938;BME280;40040;42.706;23.372;2023-01-15T10:28:19;146178.13;;;8.12;98.55
6938;BME280;40040;42.706;23.372;2023-01-15T10:30:53;146242.19;;;8.38;98.01
6938;BME280;40040;42.706;23.372;2023-01-15T10:36:23;146238.50;;;8.37;98.31
6938;BME280;40040;42.706;23.372;2023-01-15T10:38:59;146210.16;;;8.25;98.73
6938;BME280;40040;42.706;23.372;2023-01-15T10:41:41;146232.34;;;8.34;97.00
6938;BME280;40040;42.706;23.372;2023-01-15T10:44:15;146212.66;;;8.26;97.59
6938;BME280;40040;42.706;23.372;2023-01-15T10:46:47;146221.25;;;8.30;97.55
6938;BME280;40040;42.706;23.372;2023-01-15T10:49:17;146269.25;;;8.49;95.72
6938;BME280;40040;42.706;23.372;2023-01-15T10:51:45;146316.06;;;8.68;95.60
6938;BME280;40040;42.706;23.372;2023-01-15T10:54:19;146374.00;;;8.92;95.88
6938;BME280;40040;42.706;23.372;2023-01-15T10:56:52;146449.16;;;9.23;91.04
6938;BME280;40040;42.706;23.372;2023-01-15T10:59:34;146481.22;;;9.36;91.34
6938;BME280;40040;42.706;23.372;2023-01-15T11:02:15;146533.00;;;9.57;89.38
6938;BME280;40040;42.706;23.372;2023-01-15T11:04:46;146540.38;;;9.60;88.70
6938;BME280;40040;42.706;23.372;2023-01-15T11:07:12;146627.94;;;9.95;87.27
6938;BME280;40040;42.706;23.372;2023-01-15T11:09:40;146636.53;;;9.99;84.89
6938;BME280;40040;42.706;23.372;2023-01-15T11:12:19;146639.00;;;10.00;85.19
6938;BME280;40040;42.706;23.372;2023-01-15T11:15:13;146587.22;;;9.79;85.40
6938;BME280;40040;42.706;23.372;2023-01-15T11:18:01;146646.41;;;10.03;86.04
6938;BME280;40040;42.706;23.372;2023-01-15T11:20:46;146700.75;;;10.25;85.13
6938;BME280;40040;42.706;23.372;2023-01-15T11:23:16;146779.66;;;10.57;83.99
6938;BME280;40040;42.706;23.372;2023-01-15T11:25:47;146794.50;;;10.63;83.50
6938;BME280;40040;42.706;23.372;2023-01-15T11:28:15;146756.25;;;10.48;84.48
6938;BME280;40040;42.706;23.372;2023-01-15T11:30:51;146764.91;;;10.51;85.07
6938;BME280;40040;42.706;23.372;2023-01-15T11:33:24;146779.66;;;10.57;85.35
6938;BME280;40040;42.706;23.372;2023-01-15T11:35:53;146873.44;;;10.95;85.61
6938;BME280;40040;42.706;23.372;2023-01-15T11:38:23;146896.91;;;11.05;83.24
6938;BME280;40040;42.706;23.372;2023-01-15T11:40:51;146904.31;;;11.08;83.70
6938;BME280;40040;42.706;23.372;2023-01-15T11:43:20;146905.56;;;11.08;82.78
6938;BME280;40040;42.706;23.372;2023-01-15T11:46:04;146895.66;;;11.04;83.70
6938;BME280;40040;42.706;23.372;2023-01-15T11:48:49;146990.72;;;11.43;83.87
6938;BME280;40040;42.706;23.372;2023-01-15T11:51:38;147058.69;;;11.71;81.86
6938;BME280;40040;42.706;23.372;2023-01-15T11:54:09;147113.00;;;11.93;82.59
6938;BME280;40040;42.706;23.372;2023-01-15T11:56:40;147078.41;;;11.79;81.38
6938;BME280;40040;42.706;23.372;2023-01-15T11:59:09;146974.69;;;11.37;83.34
6938;BME280;40040;42.706;23.372;2023-01-15T12:01:38;146999.38;;;11.47;83.63
6938;BME280;40040;42.706;23.372;2023-01-15T12:04:23;147025.31;;;11.57;82.72
6938;BME280;40040;42.706;23.372;2023-01-15T12:06:51;147022.81;;;11.56;82.99
6938;BME280;40040;42.706;23.372;2023-01-15T12:09:26;147030.25;;;11.59;82.58
6938;BME280;40040;42.706;23.372;2023-01-15T12:12:07;146885.78;;;11.00;83.48
6938;BME280;40040;42.706;23.372;2023-01-15T12:14:49;146745.13;;;10.43;84.92
6938;BME280;40040;42.706;23.372;2023-01-15T12:17:33;146616.81;;;9.91;87.75
6938;BME280;40040;42.706;23.372;2023-01-15T12:20:20;146519.44;;;9.51;89.98
6938;BME280;40040;42.706;23.372;2023-01-15T12:23:01;146451.63;;;9.24;90.74
6938;BME280;40040;42.706;23.372;2023-01-15T12:25:39;146513.25;;;9.49;91.12
6938;BME280;40040;42.706;23.372;2023-01-15T12:28:11;146623.00;;;9.93;89.15
6938;BME280;40040;42.706;23.372;2023-01-15T12:30:47;146634.06;;;9.98;88.43
6938;BME280;40040;42.706;23.372;2023-01-15T12:33:27;146698.25;;;10.24;88.62
6938;BME280;40040;42.706;23.372;2023-01-15T12:36:06;146737.75;;;10.40;87.50
6938;BME280;40040;42.706;23.372;2023-01-15T12:38:45;146717.97;;;10.32;87.23
6938;BME280;40040;42.706;23.372;2023-01-15T12:41:15;146735.25;;;10.39;87.33
6938;BME280;40040;42.706;23.372;2023-01-15T12:43:44;146687.19;;;10.19;87.80
6938;BME280;40040;42.706;23.372;2023-01-15T12:46:30;146661.28;;;10.09;88.24
6938;BME280;40040;42.706;23.372;2023-01-15T12:49:03;146629.13;;;9.96;87.83
6938;BME280;40040;42.706;23.372;2023-01-15T12:51:40;146483.66;;;9.37;89.25
6938;BME280;40040;42.706;23.372;2023-01-15T12:54:13;146473.84;;;9.33;91.32
6938;BME280;40040;42.706;23.372;2023-01-15T12:56:47;146518.19;;;9.51;90.50
6938;BME280;40040;42.706;23.372;2023-01-15T12:59:21;146588.47;;;9.79;88.95
6938;BME280;40040;42.706;23.372;2023-01-15T13:01:58;146641.47;;;10.01;88.36
6938;BME280;40040;42.706;23.372;2023-01-15T13:04:41;146656.28;;;10.07;86.58
6938;BME280;40040;42.706;23.372;2023-01-15T13:07:17;146757.44;;;10.48;85.81
6938;BME280;40040;42.706;23.372;2023-01-15T13:09:50;146746.38;;;10.44;85.30
6938;BME280;40040;42.706;23.372;2023-01-15T13:12:18;146703.19;;;10.26;85.94
6938;BME280;40040;42.706;23.372;2023-01-15T13:14:45;146698.25;;;10.24;87.82